Date,TemperatureHighF,TemperatureAvgF,TemperatureLowF,DewpointHighF,DewpointAvgF,DewpointLowF,HumidityHigh,HumidityAvg,HumidityLow,PressureMaxIn,PressureMinIn,WindSpeedMaxMPH,WindSpeedAvgMPH,GustSpeedMaxMPH,PrecipitationSumIn
2014-1-1,45.1,33.4,23.9,33.5,27.8,22.2,97,81,56,30.53,30.29,7,0,7,0.00
2014-1-2,45.4,34.3,19.5,45.4,32.7,15.2,100,94,80,30.29,29.81,16,0,16,0.04
2014-1-3,25.1,17.7,11.5,16.0,11.1,7.1,90,76,54,30.61,30.03,22,1,22,0.00
2014-1-4,40.4,27.6,13.5,38.5,22.9,11.4,99,83,51,30.63,30.38,16,1,16,0.01
2014-1-5,45.8,42.2,38.3,45.8,42.0,37.8,100,99,93,30.39,29.83,13,0,13,0.03
2014-1-6,43.7,21.6,1.9,43.7,16.8,-5.0,100,82,63,30.40,29.79,19,1,19,0.07
2014-1-7,18.7,7.5,-1.9,5.8,-2.3,-99.9,81,68,51,30.70,30.39,20,-13,20,0.00
2014-1-8,45.1,24.1,9.1,24.9,14.3,4.6,87,68,43,30.80,30.64,4,0,4,0.00
2014-1-9,45.8,32.7,19.8,33.3,23.9,17.6,93,72,45,30.69,30.56,11,0,11,0.03
2014-1-10,49.3,40.5,33.7,49.3,40.4,33.4,100,100,92,30.61,30.18,4,0,4,0.52
2014-1-11,53.0,47.7,41.4,52.6,46.2,35.0,100,95,69,30.20,29.72,7,0,7,1.33
2014-1-12,50.5,41.6,32.7,38.0,34.8,30.8,93,78,57,30.29,29.93,12,0,12,0.01
2014-1-13,54.2,40.0,28.4,41.5,35.4,28.1,100,85,56,30.27,30.05,12,0,12,0.01
2014-1-14,50.5,42.5,29.6,43.0,37.9,28.3,100,85,56,30.10,29.90,15,0,15,0.11
2014-1-15,36.6,31.0,25.4,33.3,28.2,19.8,100,90,75,30.14,30.05,13,0,13,0.00
2014-1-16,40.9,29.2,19.8,23.8,19.3,15.5,87,68,45,30.20,30.06,11,0,11,0.00
2014-1-17,46.9,32.7,21.8,30.4,23.0,18.0,95,69,41,30.14,29.94,13,0,13,0.00
2014-1-18,34.6,25.9,16.9,21.3,16.6,11.7,87,69,53,30.23,30.07,6,0,8,0.00
2014-1-19,45.2,34.2,23.2,31.6,24.5,16.4,82,68,56,30.15,30.06,11,0,11,0.00
2014-1-20,59.1,42.3,27.5,36.6,28.0,19.9,84,59,40,30.10,29.96,4,0,6,0.00
2014-1-21,45.9,30.4,16.2,35.0,25.8,11.4,96,84,58,30.07,29.74,18,1,18,0.00
2014-1-22,26.4,17.6,9.0,11.6,7.4,2.7,84,66,45,30.27,30.03,13,1,13,0.00
2014-1-23,28.3,20.2,8.9,15.2,9.6,-1.7,75,63,54,30.62,30.26,16,1,16,0.00
2014-1-24,25.6,13.5,1.9,5.6,0.8,-3.7,79,58,40,30.78,30.39,11,0,11,0.00
2014-1-25,36.9,26.1,12.9,27.2,15.1,2.4,88,64,43,30.39,29.88,13,0,13,0.00
2014-1-26,52.9,37.7,24.2,32.9,24.6,15.7,74,60,43,30.09,29.95,7,0,7,0.00
2014-1-27,49.9,36.7,21.6,40.5,28.1,6.7,89,71,50,30.25,29.97,15,1,15,0.00
2014-1-28,22.6,19.2,15.6,20.4,12.9,5.2,93,78,53,30.38,30.23,12,0,12,0.00
2014-1-29,24.9,16.1,8.0,11.9,6.0,-2.0,87,67,41,30.51,30.33,13,0,13,0.05
2014-1-30,35.5,18.2,0.2,17.9,9.1,-2.3,93,70,47,30.56,30.38,11,0,11,0.01
2014-1-31,51.7,31.1,13.8,28.0,19.4,11.7,94,66,37,30.41,30.29,4,0,4,0.01
2014-2-1,58.1,38.1,21.3,33.3,26.8,19.5,95,68,33,30.38,30.23,12,0,12,0.00
2014-2-2,65.3,45.0,27.0,55.8,40.2,25.8,99,84,64,30.27,30.08,5,0,5,0.01
2014-2-3,56.3,46.3,37.4,56.3,45.0,36.1,100,95,83,30.31,29.93,13,1,13,0.22
2014-2-4,42.0,37.9,35.4,38.7,36.8,35.3,100,96,87,30.44,30.18,10,0,10,0.25
2014-2-5,55.7,44.5,35.1,52.3,42.3,33.1,100,93,74,30.20,29.96,21,1,21,0.23
2014-2-6,34.0,28.1,23.6,26.7,23.8,20.9,94,84,72,30.46,30.28,14,1,14,0.00
2014-2-7,45.4,33.0,26.5,33.8,27.0,24.2,92,79,60,30.50,30.36,7,0,7,0.00
2014-2-8,50.5,37.8,31.4,40.3,31.7,25.8,97,79,63,30.39,30.22,9,0,9,0.00
2014-2-9,53.4,39.1,28.1,41.4,35.2,27.6,100,87,60,30.29,30.09,6,0,7,0.00
2014-2-10,36.9,33.2,30.5,34.9,32.4,29.6,100,97,91,30.34,30.16,4,0,7,0.07
2014-2-11,32.2,30.3,28.5,31.8,29.9,27.5,100,98,96,30.45,30.32,4,0,4,0.01
2014-2-12,28.5,25.5,22.8,27.7,23.4,17.5,100,92,76,30.49,29.98,6,0,6,0.00
2014-2-13,34.6,29.8,26.7,32.0,28.6,25.4,100,95,83,29.98,29.80,13,1,13,0.05
2014-2-14,51.3,37.9,25.5,37.8,30.1,22.9,93,74,51,30.00,29.84,4,0,10,0.40
2014-2-15,39.3,31.4,26.5,36.4,26.2,19.9,97,81,64,30.23,29.69,25,1,25,0.01
2014-2-16,52.1,37.0,22.4,36.1,29.0,20.7,100,74,53,30.29,30.17,11,0,11,0.00
2014-2-17,46.2,37.9,28.3,36.1,31.8,27.1,100,79,63,30.42,30.27,12,1,12,0.00
2014-2-18,60.6,44.9,30.5,40.7,34.5,29.6,100,71,40,30.37,30.17,10,0,10,0.01
2014-2-19,68.3,52.8,42.7,57.8,47.4,37.3,100,84,53,30.18,30.05,6,0,6,0.16
2014-2-20,69.0,55.8,44.6,59.9,52.5,43.2,100,89,71,30.21,29.98,14,0,14,0.00
2014-2-21,62.9,51.8,39.3,58.8,41.1,25.3,100,70,34,30.14,29.86,9,1,19,0.62
2014-2-22,60.9,46.9,35.7,33.4,28.8,25.3,75,52,31,30.33,30.14,9,0,9,0.00
2014-2-23,67.5,47.7,31.1,42.4,34.5,27.3,90,63,39,30.23,30.01,10,0,10,0.00
2014-2-24,51.5,43.7,32.6,37.9,31.7,22.4,88,64,44,30.25,30.06,15,1,15,0.00
2014-2-25,51.5,40.3,28.8,35.0,28.1,23.0,84,63,46,30.22,30.06,15,1,15,0.00
2014-2-26,39.9,33.9,26.8,26.0,22.6,16.6,69,63,55,30.08,29.92,15,1,15,0.00
2014-2-27,44.1,30.2,20.5,17.6,13.5,7.5,72,52,32,30.15,29.99,17,1,17,0.00
2014-2-28,44.1,32.8,19.5,22.4,17.9,12.1,79,55,41,30.40,30.15,13,0,13,0.00
2014-3-1,55.9,40.7,28.2,39.5,30.2,20.0,85,67,51,30.45,30.31,11,0,11,0.00
2014-3-2,68.3,49.6,30.1,54.1,42.8,28.7,98,79,58,30.36,30.01,5,0,5,0.00
2014-3-3,55.9,42.3,29.4,51.4,40.4,28.0,100,93,75,30.27,29.83,11,1,13,0.18
2014-3-4,42.9,32.8,26.4,31.7,26.8,23.1,100,80,63,30.40,30.26,10,0,10,0.01
2014-3-5,57.8,40.3,27.9,39.8,30.9,22.8,87,71,46,30.34,30.19,7,0,7,0.00
2014-3-6,39.5,34.2,28.6,33.6,26.8,21.9,100,76,54,30.41,30.20,5,0,7,0.20
2014-3-7,51.4,40.8,32.7,45.3,38.9,32.7,100,94,76,30.20,30.07,7,0,7,0.37
2014-3-8,64.7,47.8,31.6,46.2,39.2,31.6,100,76,48,30.25,30.11,1,0,1,0.00
2014-3-9,62.1,52.1,44.4,45.1,38.8,29.5,82,62,42,30.22,30.13,18,1,18,0.00
2014-3-10,67.4,50.6,31.9,49.0,39.3,27.8,87,66,47,30.19,29.97,12,0,12,0.00
2014-3-11,74.6,54.6,35.5,50.7,43.4,34.3,98,69,39,30.00,29.80,11,0,11,0.00
2014-3-12,68.7,53.8,33.8,59.5,47.5,26.1,99,80,55,29.86,29.41,11,1,20,0.00
2014-3-13,39.5,31.7,25.3,28.2,19.3,13.4,92,62,38,30.40,29.86,17,1,17,0.01
2014-3-14,58.2,39.7,21.5,33.7,24.8,15.4,87,58,35,30.47,30.22,19,1,19,0.00
2014-3-15,64.7,53.2,41.6,45.0,37.9,30.1,75,57,42,30.22,30.10,12,1,12,0.00
2014-3-16,46.7,42.9,39.3,46.7,40.8,35.5,100,93,69,30.14,29.83,10,0,10,0.37
2014-3-17,39.0,34.7,31.3,39.0,34.7,31.3,100,100,98,30.05,29.85,8,0,8,0.30
2014-3-18,47.7,37.8,31.0,44.2,36.8,31.0,100,96,87,30.27,30.02,10,0,10,0.00
2014-3-19,54.3,43.6,39.0,49.1,42.4,39.0,100,96,81,30.29,30.09,11,0,11,0.02
2014-3-20,57.6,47.9,37.2,43.8,35.1,27.8,100,66,37,30.22,30.11,20,1,20,0.00
2014-3-21,63.7,48.0,30.7,36.8,31.2,25.2,86,54,35,30.30,30.14,15,1,15,0.00
2014-3-22,67.5,54.6,41.5,48.7,41.2,32.5,84,62,45,30.18,30.06,8,0,8,0.00
2014-3-23,47.3,42.8,38.3,45.5,39.0,28.7,100,87,63,30.27,30.04,16,1,16,0.22
2014-3-24,53.6,40.1,29.0,34.4,28.5,23.3,83,65,45,30.37,30.14,11,0,11,0.00
2014-3-25,41.0,34.7,26.1,36.1,29.4,16.7,100,82,59,30.21,29.95,11,1,11,0.03
2014-3-26,43.0,30.9,22.3,23.1,17.7,13.9,78,59,41,30.46,30.20,14,1,14,0.01
2014-3-27,55.7,40.3,23.4,32.7,25.9,18.9,88,60,38,30.57,30.35,18,1,18,0.00
2014-3-28,56.0,51.8,45.3,53.9,49.2,31.3,100,92,57,30.37,30.18,12,0,12,0.00
2014-3-29,61.9,52.8,38.8,59.7,51.8,36.3,100,97,80,30.20,29.72,16,0,16,0.24
2014-3-30,50.6,41.2,33.1,36.6,33.6,30.9,99,76,54,30.25,29.90,30,2,30,0.01
2014-3-31,73.4,54.0,36.9,40.7,34.1,29.6,75,50,28,30.32,30.17,12,1,12,0.00
2014-4-1,79.2,58.6,40.6,52.8,44.0,34.7,90,61,37,30.26,30.10,7,0,7,0.00
2014-4-2,80.7,60.7,39.2,54.8,44.9,36.0,99,61,33,30.23,30.09,9,0,9,0.00
2014-4-3,80.0,64.1,51.0,61.7,50.6,35.7,81,63,40,30.17,29.95,16,1,16,0.00
2014-4-4,72.3,63.1,56.2,60.9,55.2,48.4,94,76,55,29.99,29.82,10,0,10,0.00
2014-4-5,62.3,52.0,42.4,50.4,40.9,36.3,85,67,43,30.17,29.95,15,1,15,0.00
2014-4-6,56.7,48.3,38.7,44.6,40.2,36.1,94,74,61,30.28,30.13,12,0,12,0.02
2014-4-7,54.7,46.9,42.6,54.6,46.8,42.6,100,100,94,30.17,29.78,9,0,9,0.46
2014-4-8,54.7,48.0,40.3,54.7,43.9,38.3,100,86,68,29.90,29.75,16,1,16,0.00
2014-4-9,59.9,48.4,35.7,45.0,39.6,34.7,100,75,43,30.26,29.89,17,1,17,0.00
2014-4-10,71.0,52.5,31.8,48.9,40.0,30.6,100,66,42,30.41,30.24,10,0,10,0.00
2014-4-11,73.5,59.1,41.9,52.6,44.9,38.3,90,61,43,30.32,30.15,7,0,7,0.00
2014-4-12,76.7,60.8,43.4,58.0,48.2,41.2,95,66,41,30.32,30.18,12,0,12,0.00
2014-4-13,77.8,64.8,51.3,61.3,55.5,48.5,96,73,55,30.24,30.10,14,1,14,0.00
2014-4-14,65.2,60.7,58.9,61.6,58.2,54.7,100,92,76,30.11,29.87,18,1,18,0.36
2014-4-15,59.4,46.6,32.2,59.4,44.9,25.5,100,94,76,30.17,29.72,19,1,19,0.46
2014-4-16,55.5,40.7,28.6,33.5,27.9,22.5,80,62,36,30.53,30.17,12,1,12,0.00
2014-4-17,58.8,43.5,28.5,39.8,32.7,27.5,98,69,40,30.64,30.49,12,1,12,0.00
2014-4-18,52.9,44.5,37.6,47.0,40.2,33.6,100,85,69,30.55,30.32,4,0,4,0.33
2014-4-19,53.0,47.8,44.8,52.7,47.6,44.8,100,99,88,30.36,30.22,15,0,15,0.82
2014-4-20,69.5,53.9,40.4,49.1,42.6,35.7,100,71,31,30.41,30.28,13,0,13,0.00
2014-4-21,76.3,56.5,35.5,53.9,45.5,34.8,100,70,40,30.32,30.05,7,0,7,0.00
2014-4-22,64.7,57.0,48.5,61.1,54.2,46.8,100,91,70,30.05,29.85,5,0,5,0.18
2014-4-23,67.9,57.9,49.3,56.2,42.6,35.7,100,60,36,30.09,29.90,13,1,13,0.01
2014-4-24,70.2,55.7,37.4,48.7,41.6,35.1,94,61,42,30.23,30.05,15,1,15,0.00
2014-4-25,73.5,60.1,48.4,63.1,53.2,43.4,100,79,61,30.07,29.82,17,1,17,0.01
2014-4-26,78.9,62.6,49.5,53.8,49.9,46.7,92,66,39,30.14,30.00,11,0,11,0.00
2014-4-27,80.8,63.9,44.2,60.3,52.3,43.2,99,70,36,30.14,29.99,13,0,13,0.00
2014-4-28,76.4,67.6,57.7,65.5,62.1,57.7,100,84,62,30.06,29.87,10,0,10,0.09
2014-4-29,68.5,64.2,60.7,65.5,62.6,60.5,100,95,85,30.03,29.82,15,2,15,1.17
2014-4-30,69.7,63.4,59.2,63.2,61.2,57.4,100,93,74,30.04,29.92,19,1,19,0.04
2014-5-1,67.7,58.8,49.3,57.4,52.0,42.9,100,80,58,30.00,29.90,17,0,17,0.00
2014-5-2,67.1,56.0,44.9,49.9,44.3,40.1,90,66,50,30.07,29.93,3,0,7,0.00
2014-5-3,71.0,57.9,45.5,50.4,46.1,42.1,88,67,45,30.09,30.00,14,0,14,0.00
2014-5-4,81.4,63.6,44.1,57.1,50.2,43.1,98,66,38,30.16,30.02,11,0,11,0.00
2014-5-5,86.1,66.8,48.5,61.1,52.6,47.7,100,66,32,30.10,29.92,5,0,5,0.00
2014-5-6,85.5,68.6,52.9,61.6,55.5,49.6,92,66,41,30.06,29.94,9,0,9,0.00
2014-5-7,81.5,66.1,48.0,64.1,55.8,47.2,100,72,44,30.20,30.05,16,0,16,0.00
2014-5-8,85.0,67.9,48.3,65.2,57.4,47.8,100,72,45,30.30,30.17,5,0,5,0.00
2014-5-9,74.5,63.8,54.8,65.7,60.4,54.4,100,89,72,30.23,30.14,9,0,9,0.26
2014-5-10,68.5,62.1,57.0,66.6,61.4,57.0,100,98,89,30.20,30.11,5,0,5,0.13
2014-5-11,81.7,66.2,51.6,66.7,60.3,51.6,100,84,47,30.27,30.17,9,0,9,0.00
2014-5-12,82.5,68.0,55.6,70.9,64.4,55.6,100,90,58,30.29,30.19,5,0,5,0.00
2014-5-13,83.4,70.2,58.4,71.7,64.9,58.3,100,85,59,30.25,30.15,10,0,10,0.00
2014-5-14,78.5,68.5,57.3,68.6,63.0,57.3,100,84,64,30.23,30.06,17,1,17,0.25
2014-5-15,66.2,59.0,47.8,66.2,58.9,47.5,100,100,95,30.07,29.93,14,0,14,1.67
2014-5-16,61.1,50.5,42.5,49.6,45.3,41.3,98,83,60,30.24,30.05,12,0,12,0.00
2014-5-17,60.9,49.2,35.7,50.8,44.5,35.7,100,85,62,30.33,30.21,5,0,5,0.00
2014-5-18,56.5,50.6,46.3,53.6,49.4,45.5,100,96,88,30.36,30.29,4,0,4,0.08
2014-5-19,68.3,55.1,43.6,56.4,50.3,43.6,100,86,60,30.43,30.31,11,0,11,0.00
2014-5-20,75.2,61.5,46.2,66.1,57.1,46.2,100,87,66,30.39,30.19,7,0,7,0.00
2014-5-21,82.7,67.3,52.1,67.1,60.2,52.1,100,80,53,30.24,30.08,12,0,12,0.00
2014-5-22,80.9,70.6,61.7,70.0,64.1,58.1,91,81,66,30.17,30.02,11,0,11,0.00
2014-5-23,79.5,69.4,61.2,68.2,64.5,60.1,100,85,66,30.19,30.06,14,0,14,0.00
2014-5-24,76.3,62.7,55.1,60.5,55.6,51.0,93,79,48,30.23,30.11,7,0,7,0.00
2014-5-25,75.3,61.0,48.1,66.9,57.9,47.2,100,90,71,30.28,30.21,10,0,10,0.78
2014-5-26,81.0,65.8,58.1,70.7,64.2,58.1,100,95,66,30.31,30.19,11,0,15,0.36
2014-5-27,80.1,66.4,59.7,72.3,64.5,59.7,100,94,73,30.24,30.11,5,0,5,0.02
2014-5-28,80.0,67.0,56.5,70.6,63.9,56.5,100,91,61,30.17,30.07,6,0,6,0.00
2014-5-29,80.5,67.9,58.2,71.6,65.3,58.2,100,92,70,30.17,30.09,4,0,4,0.02
2014-5-30,79.5,67.6,63.2,72.2,66.5,63.1,100,96,76,30.18,30.12,13,0,13,1.40
2014-5-31,72.2,66.5,62.8,69.0,65.4,62.8,100,97,88,30.27,30.17,9,0,9,0.00
2014-6-1,69.5,64.5,58.7,65.1,62.8,58.3,100,94,81,30.38,30.26,11,0,11,0.00
2014-6-2,75.0,63.8,54.5,64.7,59.3,54.5,100,86,67,30.36,30.22,7,0,7,0.00
2014-6-3,70.2,59.8,56.2,65.8,58.8,56.2,100,97,84,30.24,30.19,5,0,5,0.00
2014-6-4,81.9,70.2,57.1,72.0,66.3,57.1,100,88,68,30.10,29.90,1,0,0,0.00
2014-6-5,79.1,70.7,65.0,71.1,68.3,65.0,100,93,75,29.96,29.83,1,0,0,0.90
2014-6-6,79.7,71.1,63.2,70.3,66.9,63.2,100,88,70,30.02,29.94,0,0,0,0.10
2014-6-7,79.9,69.7,61.4,71.4,67.1,61.4,100,92,73,30.08,29.99,1,0,0,5.70
2014-6-8,80.1,71.4,64.2,74.0,68.3,62.7,100,91,72,30.05,29.91,1,0,0,1.10
2014-6-9,81.5,71.1,59.4,72.1,66.7,59.4,100,87,65,30.02,29.92,7,0,7,0.00
2014-6-10,85.7,72.3,60.8,74.7,67.5,60.8,100,86,62,30.05,29.96,10,0,10,0.00
2014-6-11,78.0,69.6,63.1,70.3,66.5,63.1,100,91,70,30.04,29.88,13,0,13,0.32
2014-6-12,73.1,66.1,61.6,69.8,65.7,61.6,100,99,85,30.00,29.91,4,0,4,0.25
2014-6-13,77.4,66.1,61.7,70.7,64.6,61.7,100,96,72,30.04,29.93,8,0,8,0.27
2014-6-14,80.0,68.2,59.0,70.1,63.9,59.0,100,88,62,30.16,30.05,4,0,4,0.00
2014-6-15,81.3,70.0,58.8,72.2,66.3,58.8,100,89,71,30.26,30.16,11,0,11,0.00
2014-6-16,81.0,71.4,64.5,74.2,69.2,64.5,100,93,74,30.29,30.20,5,0,5,0.00
2014-6-17,84.0,73.7,62.8,75.6,69.6,62.8,100,88,59,30.30,30.16,3,0,3,0.00
2014-6-18,86.1,72.7,64.6,75.5,69.6,64.5,100,91,66,30.23,30.16,3,0,3,0.00
2014-6-19,85.9,71.8,61.9,75.6,68.3,61.9,100,90,64,30.24,30.13,5,0,5,0.12
2014-6-20,83.8,69.8,61.3,76.1,67.6,61.3,100,93,70,30.19,30.05,7,0,7,0.77
2014-6-21,81.2,71.7,64.2,73.8,68.3,64.2,100,90,65,30.07,29.94,5,0,5,0.00
2014-6-22,83.6,73.8,64.7,71.7,68.0,64.7,100,84,62,30.03,29.92,3,0,3,0.00
2014-6-23,80.1,72.4,66.2,73.4,69.5,65.8,100,91,77,30.18,30.03,10,0,10,0.00
2014-6-24,75.5,69.2,64.9,72.6,68.6,64.9,100,98,83,30.18,30.07,10,0,10,0.37
2014-6-25,79.4,71.1,63.8,72.7,68.5,63.8,100,92,78,30.11,30.03,3,0,3,0.00
2014-6-26,82.3,72.9,65.3,71.0,68.0,64.8,100,86,61,30.14,30.02,6,0,6,0.00
2014-6-27,82.5,70.4,66.0,75.3,69.0,66.0,100,96,73,30.21,30.06,10,0,10,1.28
2014-6-28,76.6,70.2,66.1,73.2,69.4,66.1,100,98,85,30.29,30.18,5,0,5,0.04
2014-6-29,81.3,70.7,66.1,75.1,69.7,66.1,100,97,78,30.31,30.19,6,0,6,0.66
2014-6-30,80.2,69.4,65.1,75.2,68.8,65.1,100,98,78,30.20,30.05,5,0,5,0.22
2014-7-1,86.0,75.0,66.6,78.1,71.9,66.6,100,91,70,30.10,29.96,4,0,4,0.00
2014-7-2,87.7,75.8,66.5,77.4,71.6,66.5,100,88,66,30.05,29.97,6,0,6,0.00
2014-7-3,81.9,71.8,64.0,74.9,68.2,60.6,100,89,75,30.09,29.99,4,0,4,0.00
2014-7-4,75.4,68.2,61.2,64.7,60.5,56.3,91,77,63,30.29,30.08,5,0,5,0.00
2014-7-5,77.4,65.8,52.1,64.4,58.9,51.4,100,80,60,30.39,30.28,8,0,8,0.00
2014-7-6,80.0,67.5,54.7,67.9,62.3,54.7,100,85,62,30.30,30.13,5,0,5,0.00
2014-7-7,80.2,63.6,57.7,71.1,62.5,57.6,100,96,70,30.17,30.13,4,0,4,0.00
2014-7-9,77.1,69.7,64.1,72.1,68.4,64.1,100,96,81,30.15,30.05,1,0,0,6.00
2014-7-10,78.5,68.4,64.1,72.9,67.9,64.1,100,98,83,30.22,30.10,1,0,0,4.90
2014-7-11,81.8,72.0,64.4,75.2,69.5,64.4,100,93,76,30.29,30.19,1,0,0,0.00
2014-7-12,83.4,74.0,66.3,74.6,70.6,66.3,100,90,73,30.30,30.20,1,0,0,0.00
2014-7-13,82.9,73.5,66.2,76.5,71.1,66.2,100,93,74,30.23,30.10,0,0,0,0.00
2014-7-14,84.5,73.9,64.8,77.3,71.3,64.8,100,92,77,30.12,29.97,1,0,0,0.00
2014-7-15,79.1,71.2,66.2,73.9,69.1,65.3,100,94,81,29.99,29.85,4,0,4,0.00
2014-7-16,76.0,67.0,58.8,65.3,60.7,57.1,100,82,60,30.06,29.93,4,0,4,0.00
2014-7-17,77.2,67.4,58.8,66.9,60.9,55.5,97,80,64,30.18,30.05,8,0,8,0.00
2014-7-18,66.9,63.9,61.7,66.9,63.9,61.7,100,100,97,30.26,30.18,0,0,2,1.03
2014-7-19,64.2,62.8,61.1,64.2,62.8,61.1,100,100,100,30.24,30.18,3,0,7,0.08
2014-7-20,77.2,67.0,60.6,72.7,66.0,60.6,100,97,84,30.23,30.11,6,0,6,0.06
2014-7-21,67.4,65.4,64.4,67.3,65.4,64.4,100,100,100,30.19,30.14,0,0,0,0.01
2014-7-22,76.8,70.2,65.0,73.4,69.3,65.0,100,97,85,30.25,30.16,0,0,0,0.30
2014-7-23,80.7,71.5,67.0,75.6,70.5,67.0,100,97,83,30.21,30.04,0,0,0,0.20
2014-7-24,81.8,70.2,66.7,74.8,69.5,66.7,100,98,77,30.06,29.96,0,0,0,0.20
2014-7-25,79.9,71.6,64.6,73.4,69.1,64.6,100,93,78,30.14,30.05,1,0,0,0.20
2014-7-26,84.3,73.5,65.2,74.5,69.1,65.2,100,88,62,30.12,30.03,4,0,4,0.03
2014-7-27,85.6,73.7,66.6,77.2,71.1,66.5,100,92,73,30.08,29.91,11,0,11,0.01
2014-7-28,77.5,69.6,63.5,71.1,65.3,61.9,100,87,68,30.03,29.91,6,0,6,0.02
2014-7-29,74.7,65.7,58.0,64.1,60.5,55.3,100,84,64,30.14,30.00,2,0,2,0.02
2014-7-30,76.3,64.5,54.4,65.5,58.4,52.7,95,82,63,30.19,30.13,3,0,3,0.01
2014-7-31,67.4,62.3,57.9,65.4,61.7,57.9,100,98,90,30.25,30.17,3,0,3,0.01
2014-8-1,72.1,64.5,60.6,67.1,63.2,60.6,100,96,82,30.24,30.15,5,0,5,0.02
2014-8-2,73.9,66.5,62.1,70.5,65.8,62.1,100,98,88,30.22,30.14,4,0,4,0.01
2014-8-3,80.5,70.4,63.2,70.7,65.9,63.2,100,87,62,30.20,30.10,3,0,3,0.01
2014-8-4,78.5,69.4,62.2,70.7,66.5,61.9,100,91,71,30.20,30.11,7,0,7,0.01
2014-8-5,78.8,66.4,62.8,71.6,65.6,62.8,100,97,77,30.18,30.12,3,0,3,0.00
2014-8-6,80.7,68.8,58.4,74.7,66.7,58.4,100,94,73,30.15,30.04,0,0,0,0.00
2014-8-7,81.7,71.0,62.3,71.6,67.6,62.3,100,90,67,30.12,30.05,0,0,0,0.10
2014-8-8,71.5,67.2,63.5,70.8,67.1,63.5,100,100,96,30.20,30.10,0,0,0,0.10
2014-8-9,80.4,70.3,66.1,75.5,69.5,66.1,100,97,81,30.16,30.06,1,0,0,0.00
2014-8-10,69.7,66.1,63.4,69.7,66.1,63.4,100,100,99,30.17,30.06,5,0,5,0.01
2014-8-11,79.5,70.5,65.3,75.0,69.5,65.3,100,97,83,30.16,29.99,5,0,5,0.01
2014-8-12,82.0,72.1,65.9,75.9,70.6,65.9,100,95,79,30.03,29.86,3,0,3,0.01
2014-8-13,72.8,66.5,60.1,66.3,63.0,60.1,100,89,72,30.12,29.95,4,0,4,0.00
2014-8-14,79.3,66.6,56.6,69.2,61.9,56.6,100,86,58,30.17,30.06,2,0,2,0.01
2014-8-15,80.3,67.8,57.8,68.2,63.2,57.8,100,87,59,30.15,30.05,2,0,2,0.00
2014-8-16,80.8,68.8,58.2,69.9,64.9,58.2,100,88,65,30.16,30.08,2,0,2,0.00
2014-8-17,81.5,71.1,61.1,73.2,68.2,61.1,100,91,68,30.14,30.02,3,0,3,0.00
2014-8-18,80.6,72.0,67.2,74.7,70.2,67.2,100,94,72,30.05,29.89,2,0,2,0.01
2014-8-19,71.1,67.6,64.8,70.8,67.6,64.8,100,100,99,29.97,29.91,2,0,2,0.00
2014-8-24,75.2,71.1,66.3,71.9,69.5,65.4,100,95,88,30.18,30.00,1,0,0,0.00
2014-8-25,76.1,68.0,60.5,68.4,64.9,60.2,100,90,76,30.22,30.13,1,0,0,0.00
2014-8-26,81.9,66.7,53.3,71.2,62.7,53.3,100,88,65,30.27,30.14,0,0,0,0.00
2014-8-27,83.9,68.5,55.1,69.1,63.7,55.1,100,86,59,30.23,30.09,0,0,0,0.10
2014-8-28,86.8,71.9,58.1,73.1,66.7,58.1,100,86,60,30.16,30.05,0,0,0,0.00
2014-8-29,84.3,72.9,62.2,74.9,69.1,62.2,100,89,66,30.21,30.12,1,0,0,0.00
2014-8-30,83.1,73.0,64.5,75.1,70.3,64.5,100,92,72,30.27,30.16,6,0,6,0.00
2014-8-31,83.6,72.0,67.5,76.4,71.1,67.5,100,97,77,30.23,30.14,5,0,5,0.00
2014-9-1,86.3,73.0,65.8,74.8,70.3,65.8,100,92,64,30.22,30.12,3,0,3,0.00
2014-9-2,85.3,72.5,64.9,75.7,71.1,64.9,100,96,70,30.18,30.03,3,0,3,0.00
2014-9-3,85.1,72.8,64.3,74.8,69.2,64.2,100,90,64,30.18,30.07,7,0,10,0.00
2014-9-4,80.2,70.7,66.7,75.9,69.8,66.7,100,97,80,30.28,30.16,4,0,5,0.00
2014-9-5,83.0,71.8,65.9,75.8,70.0,65.9,100,95,76,30.31,30.16,4,0,5,0.01
2014-9-6,81.9,71.8,66.7,75.6,70.3,66.7,100,95,78,30.18,30.05,1,0,4,0.00
2014-9-7,81.2,71.2,66.0,74.0,69.3,66.0,100,94,74,30.15,30.03,4,0,4,0.00
2014-9-8,71.4,67.2,64.3,69.0,66.4,64.3,100,98,90,30.22,30.11,4,0,4,0.00
2014-9-9,79.2,68.6,63.6,74.1,67.2,63.6,100,96,79,30.23,30.13,5,0,10,0.01
2014-9-10,75.1,68.9,65.5,70.3,67.6,65.5,100,96,84,30.21,30.10,1,0,0,0.00
2014-9-11,80.1,71.2,63.8,75.2,70.0,63.8,100,96,85,30.13,30.04,0,0,0,0.10
2014-9-12,81.3,72.6,67.0,75.3,71.1,67.0,100,96,80,30.15,30.05,1,0,0,0.00
2014-9-13,74.6,69.6,64.0,71.8,68.5,63.9,100,96,86,30.25,30.09,0,0,0,0.00
2014-9-14,65.0,62.7,60.5,63.8,62.2,59.6,100,98,93,30.34,30.24,0,0,0,0.00
2014-9-15,74.3,65.7,60.5,70.9,65.0,60.5,100,98,86,30.31,30.18,1,0,1,0.01
2014-9-16,76.8,68.6,63.5,72.3,67.4,63.5,100,96,81,30.21,30.02,0,0,0,0.00
2014-9-17,71.5,65.2,60.5,67.4,64.0,60.4,100,96,84,30.07,29.98,4,0,9,0.00
2014-9-18,72.7,64.8,58.8,66.5,62.4,58.8,100,93,72,30.13,30.01,4,0,4,0.00
2014-9-19,72.3,63.6,57.8,66.8,62.3,57.8,100,96,82,30.31,30.12,10,0,12,0.00
2014-9-20,75.2,65.3,58.8,65.5,61.7,58.8,100,89,67,30.31,30.12,5,0,5,0.00
2014-9-21,79.8,65.7,55.2,69.8,62.6,55.2,100,91,68,30.16,29.95,3,0,3,0.01
2014-9-22,69.2,62.2,54.8,65.3,56.1,52.3,100,81,67,30.26,30.02,4,0,4,0.00
2014-9-23,64.5,56.5,50.1,58.6,53.9,50.1,100,91,76,30.41,30.25,7,0,7,0.00
2014-9-24,69.4,58.0,46.7,59.3,51.8,45.3,100,83,47,30.46,30.36,5,0,5,0.00
2014-9-25,70.2,63.4,58.8,66.7,62.0,58.8,100,96,86,30.37,30.25,3,0,3,0.00
2014-9-26,68.0,63.8,61.6,64.5,62.6,61.6,100,96,87,30.31,30.25,0,0,0,0.00
2014-9-27,70.3,63.9,60.1,64.4,61.7,59.8,100,93,78,30.32,30.23,1,0,1,0.10
2014-9-28,71.9,62.6,54.9,67.6,61.0,54.9,100,95,79,30.30,30.17,2,0,3,0.00
2014-9-29,65.1,62.3,60.7,65.1,62.3,60.7,100,100,99,30.18,30.05,2,0,2,0.00
2014-9-30,75.1,64.5,57.7,66.2,61.2,57.6,100,90,64,30.08,29.96,2,0,3,0.00
2014-10-1,75.0,62.6,50.5,67.2,60.0,50.5,100,92,72,30.15,30.03,5,0,5,0.00
2014-10-2,76.7,64.4,56.3,67.7,60.9,56.3,100,90,61,30.23,30.10,4,0,5,0.00
2014-10-3,69.2,63.7,57.3,68.7,63.3,57.3,100,99,95,30.14,29.88,4,0,4,0.00
2014-10-4,58.8,50.3,39.3,58.8,44.0,36.9,100,80,58,30.06,29.86,3,0,9,0.00
2014-10-5,59.3,45.9,33.6,47.3,40.1,33.3,100,82,53,30.16,30.04,4,0,6,0.00
2014-10-6,65.5,52.8,40.2,58.6,49.9,39.9,100,91,68,30.18,30.08,4,0,5,0.00
2014-10-7,66.3,58.2,52.6,63.0,57.3,52.6,100,97,85,30.23,30.08,4,0,4,0.00
2014-10-8,76.1,64.8,56.9,67.1,60.4,55.5,100,87,56,30.18,30.08,4,0,4,0.01
2014-10-9,75.2,61.0,51.0,66.8,57.8,51.0,100,90,60,30.27,30.17,4,0,4,0.00
2014-10-10,77.1,67.1,56.5,70.2,65.0,56.5,100,93,77,30.22,30.05,3,0,3,0.00
2014-10-11,74.3,66.1,60.1,69.3,64.8,60.1,100,96,78,30.14,30.02,2,0,2,0.00
2014-10-12,61.0,58.1,55.1,61.0,58.1,55.1,100,100,100,30.31,30.11,5,0,5,0.00
2014-10-13,67.8,60.5,54.6,66.4,60.2,54.6,100,99,94,30.33,30.17,12,1,12,0.01
2014-10-14,66.6,64.8,57.2,66.5,64.6,57.1,100,99,95,30.17,29.79,17,1,17,0.00
2014-10-15,62.5,54.0,49.0,57.0,52.2,48.9,100,94,69,29.97,29.89,3,0,3,0.00
2014-10-16,58.7,52.3,48.3,54.2,51.0,48.3,100,96,81,30.04,29.88,3,0,3,0.00
2014-10-17,70.5,55.1,42.0,60.0,51.5,41.9,100,89,62,30.08,29.94,3,0,3,0.00
2014-10-18,62.3,56.9,49.3,55.9,51.9,45.3,98,84,69,30.10,29.91,9,0,9,0.00
2014-10-19,63.3,51.8,44.6,48.8,44.6,41.8,98,78,47,30.28,30.09,4,0,4,0.00
2014-10-20,66.5,52.0,39.2,56.7,48.6,39.2,100,90,65,30.25,30.08,6,0,6,0.00
2014-10-21,49.7,45.8,41.9,49.7,45.8,41.9,100,100,99,30.11,30.07,0,0,0,0.00
2014-10-22,54.1,47.5,42.7,44.5,41.5,39.4,90,80,68,30.27,30.13,2,0,0,0.00
2014-10-23,61.2,49.6,41.9,47.2,42.8,39.5,91,78,58,30.28,30.14,1,0,0,0.00
2014-10-24,63.0,50.6,40.1,48.9,43.7,39.3,99,79,50,30.22,30.10,0,0,0,0.00
2014-10-25,68.3,54.1,42.0,53.8,46.2,40.1,93,77,45,30.20,30.08,3,0,3,0.00
2014-10-26,72.1,57.2,43.2,57.7,50.0,43.2,100,80,50,30.14,30.05,3,0,3,0.00
2014-10-27,76.2,56.6,40.4,58.9,49.9,40.1,100,81,51,30.25,30.13,7,0,7,0.00
2014-10-28,76.0,59.5,44.6,62.5,53.8,44.6,100,84,54,30.26,30.14,7,0,7,0.00
2014-10-29,63.4,53.1,46.6,59.1,50.2,39.8,100,90,67,30.16,30.07,5,0,5,0.00
2014-10-30,60.5,48.9,39.3,45.1,41.4,38.4,98,78,49,30.21,30.07,3,0,3,0.00
2014-10-31,55.4,42.9,34.8,47.5,40.0,33.9,100,90,68,30.11,29.93,6,0,6,0.00
2014-11-1,37.2,33.5,30.8,35.2,32.4,30.4,100,96,85,30.29,29.90,7,0,7,0.00
2014-11-2,43.6,35.8,30.2,31.0,28.3,25.6,86,75,56,30.56,30.26,7,0,7,0.00
2014-11-3,62.0,43.1,26.2,38.5,31.2,24.9,98,68,31,30.64,30.48,3,0,3,0.11
2014-11-4,69.7,49.8,33.3,43.9,37.5,32.3,100,67,32,30.50,30.33,3,0,5,0.01
2014-11-5,62.8,53.3,43.0,54.0,45.8,36.2,92,77,56,30.39,30.23,4,0,4,0.00
2014-11-6,67.5,56.9,44.8,58.7,47.8,33.6,97,74,41,30.23,29.88,13,1,13,0.01
2014-11-7,48.4,41.9,34.2,38.2,35.6,32.6,95,78,63,30.21,30.05,12,0,12,0.00
2014-11-8,55.7,40.9,28.2,42.7,35.9,27.7,100,84,60,30.22,30.07,10,0,10,0.09
2014-11-9,61.1,46.8,35.3,45.4,39.5,34.1,98,78,50,30.17,30.04,4,0,4,0.02
2014-11-10,62.3,45.8,31.1,49.2,40.4,30.6,100,83,61,30.24,30.15,14,0,14,0.02
2014-11-11,68.8,47.7,30.6,48.1,39.6,30.4,100,78,42,30.23,30.05,6,0,6,0.01
2014-11-12,63.8,48.0,37.3,56.2,45.1,36.4,100,90,75,30.19,30.09,10,0,10,0.01
2014-11-13,45.2,39.2,29.0,43.8,37.4,26.7,100,93,85,30.23,30.12,13,1,15,0.00
2014-11-14,31.1,26.7,21.9,26.8,20.4,16.7,92,77,64,30.48,30.21,13,1,16,0.01
2014-11-15,40.0,28.3,16.6,23.3,19.4,14.6,94,71,47,30.61,30.47,6,0,9,0.03
2014-11-16,53.9,41.5,30.6,40.2,31.4,21.7,95,68,53,30.50,30.12,10,1,10,0.60
2014-11-17,53.4,40.1,23.9,53.4,38.8,21.4,100,95,78,30.14,29.76,17,1,17,0.06
2014-11-18,27.5,21.2,16.6,21.6,13.7,9.7,92,73,53,30.49,30.11,17,0,17,0.00
2014-11-19,39.4,26.8,15.0,21.9,16.1,9.9,85,65,47,30.56,30.38,9,0,9,0.05
2014-11-20,52.7,37.1,25.5,35.5,27.6,20.8,90,70,46,30.39,30.22,7,0,7,0.03
2014-11-21,50.4,37.3,26.8,26.8,23.5,18.0,82,59,35,30.65,30.35,11,0,11,0.00
2014-11-22,53.2,37.9,21.6,33.7,25.8,18.4,91,64,46,30.68,30.44,11,0,11,0.28
2014-11-23,53.6,45.5,39.8,53.6,41.8,28.3,100,89,51,30.44,29.82,11,0,11,0.14
2014-11-24,65.8,57.3,50.7,59.0,54.1,45.9,100,90,76,30.01,29.81,10,0,10,0.03
2014-11-25,54.4,47.7,43.0,45.9,36.6,31.7,81,66,42,30.21,30.00,5,0,12,0.01
2014-11-26,48.1,41.7,34.6,41.8,38.6,32.8,100,89,70,30.17,30.02,7,0,7,0.00
2014-11-27,38.2,33.6,27.7,34.4,30.6,21.9,100,89,76,30.45,30.08,18,0,18,0.00
2014-11-28,40.2,30.9,24.4,27.7,22.5,18.9,83,71,54,30.54,30.41,9,0,9,0.13
2014-11-29,55.1,38.9,25.0,37.7,30.9,23.8,97,75,51,30.43,30.32,1,0,0,2.60
2014-11-30,64.3,47.3,30.1,53.0,41.8,29.0,99,82,63,30.45,30.32,1,0,0,0.10
2014-12-1,66.5,50.9,36.0,55.5,46.9,36.0,100,88,64,30.51,30.38,0,0,0,0.10
2014-12-2,57.6,47.4,40.4,54.4,46.8,40.4,100,98,88,30.45,30.36,3,1,0,0.00
2014-12-3,64.6,53.8,45.9,56.4,50.6,45.9,100,90,66,30.41,30.29,3,0,0,0.00
2014-12-4,56.6,49.5,41.6,49.5,46.1,41.6,100,89,76,30.46,30.35,1,0,0,0.00
2014-12-5,49.9,47.1,44.1,49.4,46.2,43.3,100,97,86,30.53,30.42,7,0,7,0.00
2014-12-6,59.9,49.7,42.8,57.5,49.0,41.2,100,98,91,30.41,30.13,17,0,17,0.00
2014-12-7,51.3,40.8,31.8,41.2,33.6,22.3,94,77,41,30.53,30.30,13,1,13,0.00
2014-12-8,38.8,35.8,32.7,36.6,29.1,20.0,100,78,53,30.56,30.30,5,0,5,0.00
2014-12-9,40.6,36.7,32.5,37.9,34.9,31.6,100,93,87,30.30,30.15,11,0,11,0.00
2014-12-10,39.1,34.8,30.4,33.5,30.3,25.9,93,84,73,30.26,30.19,13,1,13,0.00
2014-12-11,39.3,32.0,27.9,27.0,24.6,22.1,87,75,51,30.38,30.18,15,0,15,0.02
2014-12-12,49.8,36.8,28.1,24.9,22.0,18.6,85,58,29,30.49,30.37,4,0,16,0.09
2014-12-13,55.0,40.9,32.4,32.3,26.7,21.7,79,58,35,30.39,30.25,11,0,11,0.02
2014-12-14,54.4,38.5,29.1,35.7,31.5,27.6,95,78,47,30.27,30.17,11,0,11,0.01
2014-12-15,55.7,38.1,22.8,40.1,32.1,22.1,100,81,54,30.28,30.17,11,0,11,0.12
2014-12-16,61.4,47.8,39.4,52.3,43.5,37.9,100,86,53,30.20,29.94,19,1,19,0.02
2014-12-17,47.0,41.4,36.2,39.6,37.1,34.1,94,85,71,30.29,30.17,12,0,12,0.01
2014-12-18,53.1,40.9,33.4,36.8,31.8,26.1,94,72,41,30.32,30.18,13,0,13,0.00
2014-12-19,49.4,40.9,34.6,37.3,31.9,27.1,81,70,62,30.31,30.21,7,0,7,0.00
2014-12-20,42.9,39.7,37.7,40.7,37.5,30.7,99,92,73,30.35,30.27,7,0,7,0.00
2014-12-21,46.7,41.2,38.3,42.9,39.9,38.3,100,96,85,30.38,30.26,9,0,9,0.00
2014-12-22,43.8,39.9,38.3,43.8,39.8,38.3,100,100,98,30.29,30.09,6,0,6,0.00
2014-12-23,48.8,42.1,37.8,48.8,42.1,37.8,100,100,100,30.16,29.99,11,0,11,0.00
2014-12-24,52.9,48.3,43.5,52.8,48.2,42.4,100,100,97,30.01,29.73,12,0,12,0.00
2014-12-25,45.9,40.1,30.9,42.7,35.3,29.5,97,83,69,30.40,29.86,13,0,13,0.01
2014-12-26,56.6,37.9,25.1,39.7,31.5,25.1,100,81,41,30.52,30.38,2,0,2,0.01
2014-12-27,59.8,45.9,34.2,43.6,37.5,31.3,98,75,46,30.47,30.29,5,0,5,0.00
2014-12-28,59.4,53.7,49.6,58.0,50.4,38.0,100,89,61,30.29,30.08,11,0,11,0.01
2014-12-29,55.8,50.1,44.8,52.9,49.6,44.8,100,98,88,30.21,30.11,3,0,4,0.00
2014-12-30,44.8,39.4,31.6,44.7,37.9,28.6,100,94,84,30.54,30.20,12,0,12,0.00
2014-12-31,41.7,32.8,27.3,30.7,26.8,23.6,93,79,60,30.61,30.49,8,0,8,0.00
2015-1-1,49.1,35.4,23.9,35.1,28.1,20.8,93,76,55,30.51,30.36,5,0,5,0.03
2015-1-2,49.6,43.9,38.3,46.2,39.4,32.6,100,84,73,30.47,30.38,5,0,5,0.01